Time;durP1;ratioP1;P1;durP2;ratioP2;P2;SDS_P1;SDS_P2;PMS_P1;PMS_P2;Temp;Humidity;BMP_temperature;BMP_pressure;BME280_temperature;BME280_humidity;BME280_pressure;Samples;Min_cycle;Max_cycle;Signal;HPM_P1;HPM_P2
2024/03/15 00:21:40;;;;;;;97.10;44.30;;;1.20;99.90;;;;;;5622566;24;20562;-84
2024/03/15 00:37:36;;;;;;;100.27;44.00;;;1.10;99.90;;;;;;5818304;24;20652;-87
2024/03/15 01:02:54;;;;;;;96.97;42.80;;;0.80;99.90;;;;;;5713450;24;20532;-85
2024/03/15 01:38:29;;;;;;;103.07;44.43;;;0.40;99.90;;;;;;5909560;23;20653;-87
2024/03/15 01:42:49;;;;;;;101.07;46.40;;;0.30;99.90;;;;;;5742062;24;20548;-88
2024/03/15 01:58:46;;;;;;;98.90;44.53;;;0.50;99.90;;;;;;5770150;24;20185;-87
2024/03/15 02:18:59;;;;;;;109.37;45.77;;;1.20;99.90;;;;;;5747225;24;20203;-86
2024/03/15 03:29:55;;;;;;;112.47;42.97;;;3.10;99.90;;;;;;5549601;25;20312;-87
2024/03/15 04:00:18;;;;;;;112.70;43.60;;;3.20;99.90;;;;;;5848757;23;20224;-88
2024/03/15 04:20:46;;;;;;;107.90;38.23;;;3.00;99.90;;;;;;5903421;23;20747;-86
2024/03/15 04:25:06;;;;;;;94.77;36.40;;;2.90;99.90;;;;;;5729564;24;20671;-87
2024/03/15 04:45:28;;;;;;;82.63;32.83;;;2.80;99.90;;;;;;5736436;24;20644;-85
2024/03/15 05:01:21;;;;;;;81.13;33.03;;;2.80;99.90;;;;;;5793449;24;20164;-84
2024/03/15 06:07:16;;;;;;;77.27;28.93;;;3.50;99.90;;;;;;5636184;25;20277;-86
2024/03/15 07:22:40;;;;;;;29.60;18.83;;;6.40;99.90;;;;;;5653713;24;20565;-84
2024/03/15 07:48:19;;;;;;;24.87;15.57;;;7.40;99.90;;;;;;5690754;24;20703;-84
2024/03/15 08:23:55;;;;;;;18.20;12.43;;;7.90;99.90;;;;;;6038567;23;20291;-83
2024/03/15 08:49:28;;;;;;;15.97;12.47;;;8.00;99.90;;;;;;5850019;24;20392;-83
2024/03/15 09:34:33;;;;;;;15.03;11.60;;;8.80;98.20;;;;;;5908467;23;20213;-84
2024/03/15 09:54:56;;;;;;;22.90;13.67;;;9.30;96.60;;;;;;5801304;24;20192;-86
2024/03/15 11:10:58;;;;;;;19.30;14.87;;;9.40;95.70;;;;;;5804995;23;20282;-82
2024/03/15 11:37:09;;;;;;;19.33;14.67;;;9.80;94.20;;;;;;5890027;23;20345;-81
2024/03/15 11:41:21;;;;;;;19.87;15.43;;;9.70;94.70;;;;;;5833119;23;20675;-85
2024/03/15 12:02:08;;;;;;;17.97;13.83;;;9.10;97.10;;;;;;5742100;24;20646;-84
2024/03/15 12:22:31;;;;;;;16.10;11.30;;;9.60;92.40;;;;;;5627022;24;20525;-82
2024/03/15 12:48:00;;;;;;;19.20;13.23;;;9.90;91.20;;;;;;5654709;24;20244;-82
2024/03/15 13:13:25;;;;;;;18.00;13.13;;;10.30;88.60;;;;;;5724357;24;20249;-84
2024/03/15 13:18:02;;;;;;;19.43;14.00;;;10.40;85.60;;;;;;5773841;23;20597;-85
2024/03/15 13:43:40;;;;;;;20.60;14.77;;;10.50;86.50;;;;;;5804683;23;20643;-83
2024/03/15 14:24:19;;;;;;;21.77;16.97;;;9.80;90.00;;;;;;5909343;23;20411;-84
2024/03/15 14:54:36;;;;;;;25.97;17.47;;;9.10;93.40;;;;;;5747405;24;20363;-85
2024/03/15 15:25:09;;;;;;;21.53;15.97;;;8.90;94.10;;;;;;5637209;24;20182;-81
2024/03/15 16:00:38;;;;;;;31.73;20.87;;;8.50;96.30;;;;;;5765748;23;20191;-83
2024/03/15 16:30:51;;;;;;;38.43;23.13;;;8.00;99.90;;;;;;5829386;23;20209;-85
2024/03/15 16:51:22;;;;;;;36.17;23.60;;;7.80;99.90;;;;;;5776459;24;20179;-82
2024/03/15 17:11:37;;;;;;;41.57;25.47;;;7.50;99.90;;;;;;5654359;24;20195;-86
2024/03/15 17:36:54;;;;;;;44.07;27.20;;;7.30;99.90;;;;;;5684791;24;21177;-84
2024/03/15 18:02:14;;;;;;;40.07;25.07;;;7.40;99.90;;;;;;5748398;24;20191;-85
2024/03/15 18:42:52;;;;;;;43.93;26.93;;;7.20;99.90;;;;;;5865861;23;20227;-83
2024/03/15 19:03:20;;;;;;;41.03;26.37;;;7.00;99.90;;;;;;5924681;23;20191;-84
2024/03/15 19:28:38;;;;;;;42.70;26.30;;;6.70;99.90;;;;;;5776874;24;20170;-85
2024/03/15 19:54:03;;;;;;;51.33;29.40;;;6.40;99.90;;;;;;5690617;24;20200;-84
2024/03/15 20:28:53;;;;;;;53.83;32.87;;;6.10;99.90;;;;;;5599427;24;20530;-84
2024/03/15 20:49:49;;;;;;;56.27;33.57;;;5.90;99.90;;;;;;5791756;23;20202;-84
2024/03/15 21:15:13;;;;;;;59.30;35.50;;;5.80;99.90;;;;;;5850955;23;20245;-85
2024/03/15 21:35:32;;;;;;;52.10;32.40;;;5.70;99.90;;;;;;5858798;23;20254;-88
2024/03/15 21:55:42;;;;;;;48.53;31.43;;;6.00;99.90;;;;;;5841429;23;20185;-83
2024/03/15 22:21:08;;;;;;;47.57;29.57;;;6.10;99.90;;;;;;5812068;23;20251;-84
2024/03/15 22:41:27;;;;;;;41.67;27.03;;;6.20;99.90;;;;;;5816930;23;20193;-83
2024/03/15 23:06:09;;;;;;;45.30;26.90;;;6.10;99.90;;;;;;5848903;23;20445;-84
2024/03/15 23:32:02;;;;;;;36.87;24.33;;;5.80;99.90;;;;;;5793760;23;20497;-84
